createdAt,value
2018-03-07T00:01:25.311Z,37.30
2018-03-07T00:03:52.501Z,37.40
2018-03-07T00:06:19.985Z,36.87
2018-03-07T00:08:46.502Z,36.03
2018-03-07T00:11:13.019Z,36.57
2018-03-07T00:13:39.495Z,36.13
2018-03-07T00:16:05.985Z,37.13
2018-03-07T00:18:32.472Z,37.07
2018-03-07T00:20:59.053Z,36.70
2018-03-07T00:23:25.572Z,35.30
2018-03-07T00:25:52.844Z,37.13
2018-03-07T00:28:19.426Z,35.70
2018-03-07T00:30:45.906Z,33.93
2018-03-07T00:33:13.146Z,37.50
2018-03-07T00:35:39.631Z,36.37
2018-03-07T00:38:06.138Z,35.90
2018-03-07T00:40:32.685Z,36.20
2018-03-07T00:42:59.193Z,36.07
2018-03-07T00:45:26.449Z,38.97
2018-03-07T00:47:53.743Z,39.83
2018-03-07T00:50:20.265Z,37.67
2018-03-07T00:52:46.783Z,39.30
2018-03-07T00:55:13.292Z,38.63
2018-03-07T00:57:39.795Z,40.37
2018-03-07T01:00:06.289Z,38.80
2018-03-07T01:02:32.800Z,37.73
2018-03-07T01:04:59.286Z,38.77
2018-03-07T01:07:25.828Z,38.33
2018-03-07T01:09:52.333Z,36.97
2018-03-07T01:12:18.851Z,38.73
2018-03-07T01:14:46.085Z,37.27
2018-03-07T01:17:12.590Z,39.13
2018-03-07T01:19:39.147Z,38.17
2018-03-07T01:22:05.670Z,37.97
2018-03-07T01:24:33.215Z,37.60
2018-03-07T01:26:59.715Z,38.23
2018-03-07T01:29:26.190Z,39.10
2018-03-07T01:31:52.678Z,39.37
2018-03-07T01:34:19.171Z,38.30
2018-03-07T01:36:45.675Z,37.53
2018-03-07T01:39:12.266Z,35.47
2018-03-07T01:41:38.759Z,34.70
2018-03-07T01:44:05.264Z,34.60
2018-03-07T01:46:31.803Z,37.57
2018-03-07T01:48:58.277Z,35.97
2018-03-07T01:51:36.855Z,37.60
2018-03-07T01:54:03.407Z,36.97
2018-03-07T01:56:29.917Z,35.70
2018-03-07T01:58:56.419Z,35.67
2018-03-07T02:01:22.976Z,36.77
2018-03-07T02:03:50.263Z,38.10
2018-03-07T02:06:16.750Z,36.97
2018-03-07T02:08:43.278Z,37.53
2018-03-07T02:11:09.872Z,37.10
2018-03-07T02:13:36.349Z,36.63
2018-03-07T02:16:02.839Z,36.63
2018-03-07T02:18:29.333Z,36.53
2018-03-07T02:20:55.814Z,38.13
2018-03-07T02:23:22.311Z,39.87
2018-03-07T02:25:48.769Z,38.30
2018-03-07T02:28:15.285Z,38.30
2018-03-07T02:30:42.519Z,38.70
2018-03-07T02:33:08.995Z,39.03
2018-03-07T02:35:35.564Z,39.03
2018-03-07T02:38:02.059Z,39.23
2018-03-07T02:40:28.556Z,38.93
2018-03-07T02:42:55.114Z,38.50
2018-03-07T02:45:21.641Z,38.77
2018-03-07T02:47:48.895Z,39.33
2018-03-07T02:50:15.434Z,36.07
2018-03-07T02:52:42.654Z,37.97
2018-03-07T02:55:09.155Z,39.53
2018-03-07T02:57:35.634Z,39.07
2018-03-07T03:00:02.123Z,38.87
2018-03-07T03:02:28.621Z,38.83
2018-03-07T03:04:55.844Z,38.83
2018-03-07T03:07:22.351Z,40.30
2018-03-07T03:09:48.894Z,36.93
2018-03-07T03:12:16.160Z,35.83
2018-03-07T03:14:42.668Z,36.53
2018-03-07T03:17:09.220Z,36.63
2018-03-07T03:19:35.735Z,37.40
2018-03-07T03:22:02.220Z,39.30
2018-03-07T03:24:28.724Z,38.33
2018-03-07T03:26:55.232Z,39.43
2018-03-07T03:29:21.768Z,40.23
2018-03-07T03:31:48.249Z,39.77
2018-03-07T03:34:14.761Z,38.80
2018-03-07T03:36:41.297Z,40.33
2018-03-07T03:39:07.824Z,40.57
2018-03-07T03:41:34.309Z,37.87
2018-03-07T03:44:00.821Z,42.07
2018-03-07T03:46:27.335Z,38.53
2018-03-07T03:48:53.820Z,39.50
2018-03-07T03:51:20.315Z,39.00
2018-03-07T03:53:46.854Z,38.67
2018-03-07T03:56:13.446Z,40.13
2018-03-07T03:58:40.025Z,40.00
2018-03-07T04:01:06.520Z,39.73
2018-03-07T04:03:33.087Z,39.77
2018-03-07T04:06:00.351Z,42.13
2018-03-07T04:08:26.909Z,39.37
2018-03-07T04:10:53.505Z,40.93
2018-03-07T04:13:20.068Z,39.40
2018-03-07T04:15:47.326Z,40.00
2018-03-07T04:18:13.815Z,35.90
2018-03-07T04:20:40.294Z,41.13
2018-03-07T04:23:06.806Z,41.23
2018-03-07T04:25:33.388Z,40.57
2018-03-07T04:27:59.967Z,39.20
2018-03-07T04:30:26.451Z,42.43
2018-03-07T04:32:52.959Z,36.60
2018-03-07T04:35:19.443Z,39.17
2018-03-07T04:37:46.701Z,38.80
2018-03-07T04:40:13.917Z,38.47
2018-03-07T04:42:40.412Z,41.47
2018-03-07T04:45:06.962Z,39.03
2018-03-07T04:47:33.449Z,41.70
2018-03-07T04:50:00.679Z,40.77
2018-03-07T04:52:27.155Z,40.80
2018-03-07T04:54:53.727Z,40.07
2018-03-07T04:57:20.238Z,42.00
2018-03-07T04:59:46.727Z,40.30
2018-03-07T05:02:13.239Z,39.57
2018-03-07T05:04:39.770Z,41.60
2018-03-07T05:07:06.263Z,39.73
2018-03-07T05:09:32.814Z,41.27
2018-03-07T05:11:59.332Z,40.20
2018-03-07T05:14:25.834Z,41.90
2018-03-07T05:16:52.416Z,40.83
2018-03-07T05:19:18.912Z,41.67
2018-03-07T05:21:45.411Z,42.40
2018-03-07T05:24:11.891Z,43.23
2018-03-07T05:26:38.373Z,42.73
2018-03-07T05:29:04.993Z,44.50
2018-03-07T05:31:31.514Z,42.23
2018-03-07T05:33:58.070Z,42.03
2018-03-07T05:36:24.546Z,42.70
2018-03-07T05:38:51.160Z,44.07
2018-03-07T05:41:17.658Z,42.80
2018-03-07T05:43:44.174Z,42.33
2018-03-07T05:46:11.425Z,42.17
2018-03-07T05:48:38.692Z,42.17
2018-03-07T05:51:05.910Z,42.27
2018-03-07T05:53:32.385Z,41.97
2018-03-07T05:55:58.865Z,42.73
2018-03-07T05:58:25.418Z,42.90
2018-03-07T06:00:51.895Z,41.53
2018-03-07T06:03:18.356Z,42.80
2018-03-07T06:05:44.910Z,41.27
2018-03-07T06:08:12.128Z,40.23
2018-03-07T06:10:38.639Z,40.17
2018-03-07T06:13:05.890Z,40.80
2018-03-07T06:15:33.113Z,41.67
2018-03-07T06:17:59.684Z,43.00
2018-03-07T06:20:26.232Z,43.20
2018-03-07T06:22:53.555Z,40.70
2018-03-07T06:25:20.056Z,41.90
2018-03-07T06:27:46.569Z,43.40
2018-03-07T06:30:13.629Z,42.10
2018-03-07T06:32:40.128Z,43.37
2018-03-07T06:35:06.706Z,44.97
2018-03-07T06:37:33.308Z,43.07
2018-03-07T06:39:59.837Z,42.47
2018-03-07T06:42:26.359Z,41.83
2018-03-07T06:47:55.994Z,43.03
2018-03-07T06:50:22.519Z,42.50
2018-03-07T06:52:49.866Z,42.80
2018-03-07T06:55:17.104Z,41.57
2018-03-07T06:57:43.592Z,43.40
2018-03-07T07:00:10.068Z,42.37
2018-03-07T07:02:37.278Z,42.70
2018-03-07T07:05:03.757Z,41.90
2018-03-07T07:07:30.322Z,42.83
2018-03-07T07:09:56.883Z,44.77
2018-03-07T07:12:23.398Z,46.43
2018-03-07T07:14:49.902Z,45.63
2018-03-07T07:17:16.406Z,44.90
2018-03-07T07:19:42.959Z,49.03
2018-03-07T07:22:09.526Z,50.10
2018-03-07T07:24:36.799Z,45.87
2018-03-07T07:27:03.446Z,46.43
2018-03-07T07:29:29.931Z,47.63
2018-03-07T07:31:56.456Z,45.63
2018-03-07T07:34:22.990Z,46.17
2018-03-07T07:36:49.458Z,47.30
2018-03-07T07:39:15.968Z,46.77
2018-03-07T07:41:42.463Z,46.40
2018-03-07T07:44:08.962Z,43.60
2018-03-07T07:46:35.508Z,45.87
2018-03-07T07:49:02.777Z,45.63
2018-03-07T07:51:29.367Z,42.50
2018-03-07T07:53:55.905Z,44.37
2018-03-07T07:56:22.435Z,44.30
2018-03-07T07:58:48.994Z,46.97
2018-03-07T08:01:15.524Z,45.53
2018-03-07T08:03:41.997Z,46.63
2018-03-07T08:06:08.484Z,45.67
2018-03-07T08:08:34.972Z,45.37
2018-03-07T08:11:01.489Z,44.13
2018-03-07T08:13:27.989Z,47.50
2018-03-07T08:15:54.472Z,48.87
2018-03-07T08:18:21.074Z,47.73
2018-03-07T08:20:47.553Z,42.90
2018-03-07T08:23:14.097Z,44.30
2018-03-07T08:25:40.617Z,45.63
2018-03-07T08:28:07.172Z,51.83
2018-03-07T08:30:33.722Z,50.97
2018-03-07T08:33:00.239Z,50.50
2018-03-07T08:35:26.725Z,49.00
2018-03-07T08:37:53.246Z,49.13
2018-03-07T08:40:19.770Z,51.10
2018-03-07T08:42:46.262Z,45.37
2018-03-07T08:45:12.764Z,44.97
2018-03-07T08:47:39.994Z,47.73
2018-03-07T08:50:06.530Z,46.87
2018-03-07T08:52:33.007Z,47.90
2018-03-07T08:54:59.515Z,46.57
2018-03-07T08:57:26.006Z,45.90
2018-03-07T08:59:52.490Z,46.30
2018-03-07T09:02:19.081Z,50.00
2018-03-07T09:04:45.602Z,53.07
2018-03-07T09:07:12.125Z,53.10
2018-03-07T09:09:38.618Z,51.17
2018-03-07T09:12:05.097Z,48.40
2018-03-07T09:14:31.634Z,49.17
2018-03-07T09:16:58.131Z,49.40
2018-03-07T09:19:24.694Z,44.70
2018-03-07T09:21:51.202Z,42.60
2018-03-07T09:24:17.695Z,39.13
2018-03-07T09:26:44.203Z,40.17
2018-03-07T09:29:10.696Z,42.07
2018-03-07T09:31:37.212Z,41.60
2018-03-07T09:34:03.722Z,43.43
2018-03-07T09:36:30.265Z,43.83
2018-03-07T09:38:56.771Z,41.03
2018-03-07T09:41:24.037Z,40.87
2018-03-07T09:43:50.561Z,41.30
2018-03-07T09:46:17.094Z,37.00
2018-03-07T09:48:43.653Z,37.60
2018-03-07T09:51:10.146Z,38.57
2018-03-07T09:53:36.618Z,38.43
2018-03-07T09:56:03.240Z,39.57
2018-03-07T09:58:29.777Z,39.83
2018-03-07T10:00:56.304Z,38.90
2018-03-07T10:03:23.537Z,39.40
2018-03-07T10:05:50.057Z,37.93
2018-03-07T10:08:16.584Z,36.47
2018-03-07T10:10:43.823Z,36.60
2018-03-07T10:13:10.338Z,35.57
2018-03-07T10:15:36.924Z,35.87
2018-03-07T10:18:03.415Z,34.50
2018-03-07T10:20:30.000Z,31.70
2018-03-07T10:22:56.505Z,31.57
2018-03-07T10:25:23.035Z,30.17
2018-03-07T10:27:49.636Z,30.80
2018-03-07T10:30:16.143Z,30.90
2018-03-07T10:32:42.641Z,31.10
2018-03-07T10:35:09.411Z,30.03
2018-03-07T10:37:35.886Z,29.33
2018-03-07T10:40:03.109Z,31.47
2018-03-07T10:42:29.682Z,33.20
2018-03-07T10:44:56.208Z,34.17
2018-03-07T10:47:23.461Z,34.77
2018-03-07T10:49:50.690Z,33.07
2018-03-07T10:52:17.159Z,34.40
2018-03-07T10:54:43.943Z,33.63
2018-03-07T10:57:10.437Z,32.87
2018-03-07T10:59:37.002Z,33.97
2018-03-07T11:02:03.567Z,32.53
2018-03-07T11:04:30.070Z,32.27
2018-03-07T11:06:56.562Z,30.67
2018-03-07T11:09:23.803Z,30.30
2018-03-07T11:11:51.037Z,31.10
2018-03-07T11:14:17.554Z,29.90
2018-03-07T11:16:44.045Z,25.73
2018-03-07T11:19:10.526Z,26.27
2018-03-07T11:21:37.026Z,24.53
2018-03-07T11:24:03.710Z,22.87
2018-03-07T11:26:30.231Z,23.13
2018-03-07T11:28:57.463Z,23.23
2018-03-07T11:31:23.992Z,21.27
2018-03-07T11:33:50.485Z,20.67
2018-03-07T11:36:17.030Z,21.10
2018-03-07T11:38:44.288Z,21.57
2018-03-07T11:41:11.672Z,22.93
2018-03-07T11:43:38.219Z,22.63
2018-03-07T11:46:04.742Z,23.77
2018-03-07T11:48:31.273Z,22.30
2018-03-07T11:50:57.809Z,23.53
2018-03-07T11:53:24.342Z,22.67
2018-03-07T11:55:50.830Z,23.17
2018-03-07T11:58:17.338Z,22.60
2018-03-07T12:00:43.922Z,21.80
2018-03-07T12:03:10.436Z,18.87
2018-03-07T12:05:36.938Z,17.30
2018-03-07T12:08:03.495Z,16.10
2018-03-07T12:10:30.032Z,18.30
2018-03-07T12:12:56.549Z,17.33
2018-03-07T12:15:23.020Z,16.53
2018-03-07T12:17:49.606Z,14.70
2018-03-07T12:20:16.081Z,13.03
2018-03-07T12:22:42.541Z,11.30
2018-03-07T12:25:09.827Z,12.50
2018-03-07T12:27:36.326Z,13.27
2018-03-07T12:30:02.823Z,14.97
2018-03-07T12:32:29.317Z,15.67
2018-03-07T12:34:55.809Z,16.97
2018-03-07T12:37:22.298Z,13.60
2018-03-07T12:39:48.805Z,12.53
2018-03-07T12:42:16.058Z,13.27
2018-03-07T12:44:43.331Z,15.17
2018-03-07T12:47:09.837Z,17.47
2018-03-07T12:49:36.383Z,16.17
2018-03-07T12:52:02.902Z,16.70
2018-03-07T12:54:29.417Z,14.13
2018-03-07T12:56:55.899Z,15.97
2018-03-07T12:59:23.103Z,14.37
2018-03-07T13:01:49.616Z,14.87
2018-03-07T13:04:16.102Z,13.80
2018-03-07T13:06:43.412Z,13.53
2018-03-07T13:09:09.886Z,14.07
2018-03-07T13:11:36.427Z,13.97
2018-03-07T13:14:02.974Z,14.77
2018-03-07T13:16:29.467Z,14.77
2018-03-07T13:18:56.062Z,14.83
2018-03-07T13:21:22.551Z,13.70
2018-03-07T13:23:49.089Z,10.97
2018-03-07T13:26:15.622Z,13.20
2018-03-07T13:28:42.138Z,12.57
2018-03-07T13:31:09.375Z,12.93
2018-03-07T13:33:35.899Z,14.60
2018-03-07T13:36:02.487Z,15.33
2018-03-07T13:38:28.964Z,13.97
2018-03-07T13:40:55.550Z,16.90
2018-03-07T13:43:22.035Z,16.60
2018-03-07T13:45:48.558Z,16.40
2018-03-07T13:48:15.787Z,17.40
2018-03-07T13:50:42.329Z,15.53
2018-03-07T13:53:08.834Z,16.60
2018-03-07T13:55:35.357Z,12.57
2018-03-07T13:58:01.951Z,11.97
2018-03-07T14:00:28.458Z,11.97
2018-03-07T14:02:55.022Z,12.20
2018-03-07T14:05:21.599Z,15.07
2018-03-07T14:07:48.047Z,14.87
2018-03-07T14:10:14.544Z,15.57
2018-03-07T14:12:41.053Z,14.33
2018-03-07T14:15:08.331Z,12.87
2018-03-07T14:17:34.790Z,14.07
2018-03-07T14:20:01.351Z,14.10
2018-03-07T14:22:28.568Z,13.37
2018-03-07T14:24:55.166Z,13.70
2018-03-07T14:27:21.733Z,13.97
2018-03-07T14:29:48.221Z,15.37
2018-03-07T14:32:15.008Z,14.97
2018-03-07T14:34:49.217Z,14.40
2018-03-07T14:37:17.093Z,15.63
2018-03-07T14:42:28.499Z,15.20
2018-03-07T14:45:03.295Z,14.90
2018-03-07T14:47:30.690Z,14.80
2018-03-07T14:49:57.183Z,14.37
2018-03-07T14:52:23.716Z,15.17
2018-03-07T14:54:50.981Z,15.87
2018-03-07T14:57:18.248Z,15.00
2018-03-07T14:59:44.764Z,14.53
2018-03-07T15:02:11.985Z,15.43
2018-03-07T15:04:38.569Z,14.93
2018-03-07T15:07:05.118Z,16.27
2018-03-07T15:09:31.618Z,15.20
2018-03-07T15:11:58.905Z,15.47
2018-03-07T15:14:25.408Z,17.53
2018-03-07T15:16:51.984Z,17.70
2018-03-07T15:19:18.510Z,17.80
2018-03-07T15:21:45.065Z,17.20
2018-03-07T15:24:11.610Z,18.40
2018-03-07T15:26:38.112Z,15.80
2018-03-07T15:29:04.744Z,16.57
2018-03-07T15:31:31.295Z,16.67
2018-03-07T15:33:57.842Z,16.70
2018-03-07T15:36:24.410Z,16.33
2018-03-07T15:38:50.907Z,14.63
2018-03-07T15:41:17.473Z,14.50
2018-03-07T15:43:44.177Z,15.37
2018-03-07T15:46:10.903Z,15.20
2018-03-07T15:48:37.491Z,14.80
2018-03-07T15:51:04.231Z,13.40
2018-03-07T15:53:30.862Z,13.17
2018-03-07T15:55:57.631Z,12.97
2018-03-07T16:01:37.957Z,16.37
2018-03-07T16:04:04.645Z,16.33
2018-03-07T16:06:31.981Z,17.03
2018-03-07T16:08:58.724Z,15.57
2018-03-07T16:11:25.283Z,14.90
2018-03-07T16:13:51.958Z,13.77
2018-03-07T16:16:18.623Z,13.83
2018-03-07T16:18:45.695Z,13.50
2018-03-07T16:21:12.315Z,13.77
2018-03-07T16:23:40.019Z,13.13
2018-03-07T16:26:07.437Z,13.60
2018-03-07T16:28:34.005Z,12.67
2018-03-07T16:31:00.769Z,14.67
2018-03-07T16:33:27.616Z,13.80
2018-03-07T16:35:54.248Z,14.27
2018-03-07T16:38:21.020Z,13.80
2018-03-07T16:40:48.400Z,15.27
2018-03-07T16:43:15.018Z,12.33
2018-03-07T16:45:41.715Z,13.47
2018-03-07T16:48:08.439Z,15.47
2018-03-07T16:50:35.980Z,16.10
2018-03-07T16:53:02.697Z,16.43
2018-03-07T16:55:29.600Z,15.83
2018-03-07T16:57:57.115Z,18.40
2018-03-07T17:00:23.892Z,16.47
2018-03-07T17:02:51.424Z,17.50
2018-03-07T17:05:18.064Z,16.73
2018-03-07T17:07:44.911Z,17.10
2018-03-07T17:10:11.789Z,17.53
2018-03-07T17:12:38.356Z,16.77
2018-03-07T17:15:04.992Z,17.60
2018-03-07T17:17:31.766Z,17.27
2018-03-07T17:19:58.406Z,17.57
2018-03-07T17:22:25.172Z,19.13
2018-03-07T17:24:52.503Z,19.53
2018-03-07T17:27:19.109Z,18.90
2018-03-07T17:29:45.848Z,19.30
2018-03-07T17:32:12.548Z,18.60
2018-03-07T17:34:39.238Z,19.33
2018-03-07T17:37:06.614Z,17.70
2018-03-07T17:39:33.211Z,19.93
2018-03-07T17:41:59.892Z,19.17
2018-03-07T17:44:26.425Z,18.87
2018-03-07T17:46:53.065Z,20.93
2018-03-07T17:49:19.659Z,20.23
2018-03-07T17:51:46.444Z,22.07
2018-03-07T17:54:12.978Z,21.40
2018-03-07T17:56:40.098Z,22.13
2018-03-07T17:59:06.618Z,20.63
2018-03-07T18:01:33.155Z,21.73
2018-03-07T18:03:59.913Z,21.53
2018-03-07T18:06:27.864Z,21.33
2018-03-07T18:08:54.548Z,23.40
2018-03-07T18:11:21.187Z,22.10
2018-03-07T18:13:47.777Z,21.77
2018-03-07T18:16:14.363Z,23.50
2018-03-07T18:18:40.937Z,24.67
2018-03-07T18:21:08.200Z,23.77
2018-03-07T18:23:34.789Z,24.00
2018-03-07T18:26:01.393Z,25.37
2018-03-07T18:28:27.966Z,24.97
2018-03-07T18:30:54.498Z,28.03
2018-03-07T18:33:21.137Z,31.20
2018-03-07T18:35:47.777Z,36.93
2018-03-07T18:38:15.439Z,37.83
2018-03-07T18:40:42.152Z,40.93
2018-03-07T18:43:08.715Z,39.17
2018-03-07T18:45:35.353Z,36.10
2018-03-07T18:48:03.164Z,34.70
2018-03-07T18:50:29.759Z,29.90
2018-03-07T18:52:56.394Z,29.60
2018-03-07T18:55:23.647Z,28.17
2018-03-07T18:57:50.223Z,28.43
2018-03-07T19:00:16.821Z,26.90
2018-03-07T19:02:43.459Z,25.30
2018-03-07T19:05:11.224Z,24.97
2018-03-07T19:07:39.128Z,25.00
2018-03-07T19:10:06.562Z,24.37
2018-03-07T19:12:33.464Z,26.07
2018-03-07T19:15:00.192Z,23.23
2018-03-07T19:17:26.837Z,24.77
2018-03-07T19:19:53.903Z,23.63
2018-03-07T19:22:21.205Z,22.97
2018-03-07T19:24:48.593Z,23.63
2018-03-07T19:27:17.977Z,21.80
2018-03-07T19:29:44.635Z,24.47
2018-03-07T19:32:11.275Z,23.37
2018-03-07T19:34:37.880Z,22.43
2018-03-07T19:37:05.265Z,22.13
2018-03-07T19:39:31.871Z,23.97
2018-03-07T19:41:59.160Z,22.50
2018-03-07T19:44:25.897Z,23.30
2018-03-07T19:46:52.498Z,22.90
2018-03-07T19:49:19.852Z,21.47
2018-03-07T19:51:46.427Z,24.83
2018-03-07T19:54:13.128Z,26.03
2018-03-07T19:56:40.464Z,21.93
2018-03-07T19:59:07.220Z,23.53
2018-03-07T20:01:34.005Z,22.93
2018-03-07T20:04:00.606Z,21.60
2018-03-07T20:06:28.201Z,22.10
2018-03-07T20:08:54.840Z,22.27
2018-03-07T20:11:21.479Z,23.70
2018-03-07T20:13:48.155Z,21.53
2018-03-07T20:16:14.857Z,24.30
2018-03-07T20:18:41.449Z,23.57
2018-03-07T20:21:09.160Z,22.80
2018-03-07T20:23:35.800Z,23.27
2018-03-07T20:26:02.331Z,24.73
2018-03-07T20:28:28.867Z,24.70
2018-03-07T20:30:55.506Z,25.13
2018-03-07T20:33:22.096Z,24.27
2018-03-07T20:35:48.782Z,27.10
2018-03-07T20:38:15.370Z,25.10
2018-03-07T20:40:41.927Z,26.20
2018-03-07T20:43:08.534Z,28.03
2018-03-07T20:45:36.974Z,27.40
2018-03-07T20:48:03.613Z,26.50
2018-03-07T20:50:30.294Z,26.33
2018-03-07T20:52:56.931Z,27.87
2018-03-07T20:55:23.629Z,26.30
2018-03-07T20:57:50.269Z,26.43
2018-03-07T21:00:16.800Z,26.80
2018-03-07T21:02:43.485Z,25.97
2018-03-07T21:05:10.183Z,27.27
2018-03-07T21:07:36.784Z,25.70
2018-03-07T21:10:03.463Z,26.67
2018-03-07T21:12:29.967Z,26.70
2018-03-07T21:14:57.788Z,29.57
2018-03-07T21:17:24.310Z,27.67
2018-03-07T21:19:50.859Z,27.07
2018-03-07T21:22:17.423Z,28.23
2018-03-07T21:24:44.005Z,27.13
2018-03-07T21:27:10.510Z,27.17
2018-03-07T21:29:37.118Z,27.63
2018-03-07T21:32:04.611Z,25.73
2018-03-07T21:34:31.119Z,27.00
2018-03-07T21:36:57.766Z,25.50
2018-03-07T21:39:24.251Z,26.07
2018-03-07T21:41:50.817Z,27.47
2018-03-07T21:44:17.396Z,26.97
2018-03-07T21:46:44.950Z,25.23
2018-03-07T21:49:11.504Z,28.53
2018-03-07T21:51:38.171Z,28.43
2018-03-07T21:54:04.733Z,27.80
2018-03-07T21:56:31.335Z,27.37
2018-03-07T21:58:57.821Z,27.67
2018-03-07T22:01:25.092Z,25.77
2018-03-07T22:03:51.588Z,26.33
2018-03-07T22:06:18.085Z,26.63
2018-03-07T22:08:44.595Z,28.03
2018-03-07T22:11:11.066Z,27.03
2018-03-07T22:13:37.657Z,27.73
2018-03-07T22:16:04.904Z,26.47
2018-03-07T22:18:31.508Z,26.40
2018-03-07T22:20:58.005Z,25.47
2018-03-07T22:23:24.510Z,25.67
2018-03-07T22:25:51.090Z,25.30
2018-03-07T22:28:17.649Z,25.93
2018-03-07T22:30:44.891Z,25.00
2018-03-07T22:33:11.377Z,25.43
2018-03-07T22:35:38.608Z,25.13
2018-03-07T22:38:05.128Z,25.30
2018-03-07T22:40:31.619Z,26.97
2018-03-07T22:42:58.150Z,24.87
2018-03-07T22:45:24.666Z,26.27
2018-03-07T22:47:51.186Z,24.57
2018-03-07T22:50:18.436Z,24.80
2018-03-07T22:52:44.942Z,26.43
2018-03-07T22:55:11.445Z,25.60
2018-03-07T22:57:37.997Z,25.43
2018-03-07T23:00:04.641Z,25.13
2018-03-07T23:02:31.142Z,25.53
2018-03-07T23:04:57.651Z,25.33
2018-03-07T23:07:24.980Z,26.00
2018-03-07T23:09:51.482Z,16.77
2018-03-07T23:12:17.974Z,19.23
2018-03-07T23:14:44.504Z,21.63
2018-03-07T23:17:11.026Z,18.43
2018-03-07T23:19:37.570Z,15.57
2018-03-07T23:22:04.076Z,11.43
2018-03-07T23:24:30.598Z,8.80
2018-03-07T23:26:57.171Z,7.30
2018-03-07T23:29:23.730Z,7.67
2018-03-07T23:31:50.239Z,6.03
2018-03-07T23:34:17.499Z,5.27
2018-03-07T23:36:44.744Z,3.40
2018-03-07T23:39:11.246Z,3.63
2018-03-07T23:41:37.743Z,2.20
2018-03-07T23:44:04.307Z,2.20
2018-03-07T23:46:31.506Z,3.00
2018-03-07T23:48:58.021Z,2.10
2018-03-07T23:51:25.495Z,1.67
2018-03-07T23:53:51.981Z,1.83
2018-03-07T23:56:18.472Z,1.40
2018-03-07T23:58:44.988Z,1.67
